مطارات باكستان

الرئيسية المنتدى المطارات مطارات باكستان

مشاهدة مشاركاتين - 1 إلى 2 (من مجموع 2)
  • الكاتب
    المشاركات
  • #1594
    عبد الله فهد
    مدير عام

    اهلا وسهلا هذا الثريد راح نحط فيه كل المعلومات المتعلقة للمطارات في باكستان

     

    #1595
    عبد الله فهد
    مدير عام

    مطار لاهور

    OPLA

    المطار بسيط ويعد من CAT A

    بوقت الهبوط على الفجر يوم April 3nd ,2022 كان المدرج المستخدم 36L  ومدرج 36R/18L مقفل

    ال STAR المستخدم كان MIMLA 1 A

    الرؤية كانت ٤٠٠٠ متر والرياح كانت كروس ويند بسيطة.

    OPLA 022255Z 09010KT 4000 FU NSC 22/11 Q1006 NOSIG

    الهبوط على 36L وبعدها تاكسي وي D كروس رنوي 36R/18L بعدها تاكسي وي U وبعدها N لحد R بوابه رقم ٣

    بالنسبة لل SID كان MIMAL 2D

    الرحلة كانت من الرياض الى لاهور وفي الطريق تم استخدام الموجات التالية:

    KODAT 133.250

    GESOR 132.500

    DAROR 127.525

    DEBEN 132.125

    NALPO 132.150

    TONVO 119.800

    ITLOB 128.150

    APELO 133.025

    PI 128.350

    من لاهور الى الرياض تم استخدام الموجات التالية:

    NITIV 127.500

    MIMAL 123.150

    SK 128.350

    PG 133.025

    TAPDO 128.150

    TODIV 119.800

    MENSA 132.550

    TUDIS 124.375

    ALPOB 132.125

    SOLOB 127.525

    ULADA 133.250

     

    اتمنى لكم رحلة سعيدة،

    عبدالله،

     

     

    • تمّ تحرير هذا الرد قبل قبل شهر، أسبوعين بواسطة عبد الله فهد.
مشاهدة مشاركاتين - 1 إلى 2 (من مجموع 2)
  • يجب تسجيل الدخول للرد على هذا الموضوع.